createdAt,value
2022-11-17T00:00:55.692Z,7.23
2022-11-17T00:01:58.961Z,7.21
2022-11-17T00:03:02.013Z,7.21
2022-11-17T00:04:04.681Z,7.23
2022-11-17T00:05:07.815Z,7.23
2022-11-17T00:06:12.140Z,7.23
2022-11-17T00:07:14.901Z,7.24
2022-11-17T00:08:17.661Z,7.30
2022-11-17T00:09:20.381Z,7.28
2022-11-17T00:10:23.019Z,7.25
2022-11-17T00:11:25.566Z,7.22
2022-11-17T00:12:47.166Z,7.21
2022-11-17T00:14:08.214Z,7.22
2022-11-17T00:15:10.867Z,7.21
2022-11-17T00:16:15.227Z,7.22
2022-11-17T00:17:17.930Z,7.25
2022-11-17T00:18:39.172Z,7.24
2022-11-17T00:20:00.189Z,7.24
2022-11-17T00:21:19.998Z,7.22
2022-11-17T00:22:23.312Z,7.21
2022-11-17T00:23:47.128Z,7.21
2022-11-17T00:24:50.573Z,7.19
2022-11-17T00:25:53.361Z,7.20
2022-11-17T00:27:02.187Z,7.19
2022-11-17T00:28:05.188Z,7.21
2022-11-17T00:29:11.580Z,7.15
2022-11-17T00:30:34.375Z,7.14
2022-11-17T00:31:55.410Z,7.19
2022-11-17T00:33:23.010Z,7.17
2022-11-17T00:34:25.581Z,7.16
2022-11-17T00:35:28.175Z,7.16
2022-11-17T00:36:36.102Z,7.17
2022-11-17T00:38:00.601Z,7.12
2022-11-17T00:39:03.548Z,7.10
2022-11-17T00:40:06.865Z,7.07
2022-11-17T00:41:09.573Z,7.09
2022-11-17T00:42:12.359Z,7.06
2022-11-17T00:43:15.125Z,7.05
2022-11-17T00:44:17.976Z,7.06
2022-11-17T00:45:20.667Z,7.09
2022-11-17T00:46:23.782Z,7.10
2022-11-17T00:47:26.651Z,7.07
2022-11-17T00:48:29.643Z,7.09
2022-11-17T00:49:32.298Z,7.08
2022-11-17T00:50:35.013Z,7.08
2022-11-17T00:51:38.557Z,7.06
2022-11-17T00:52:41.252Z,7.07
2022-11-17T00:53:44.046Z,7.07
2022-11-17T00:54:46.760Z,7.08
2022-11-17T00:55:49.389Z,7.08
2022-11-17T00:56:52.248Z,7.10
2022-11-17T00:57:55.051Z,7.08
2022-11-17T00:58:58.287Z,7.08
2022-11-17T01:00:01.100Z,7.17
2022-11-17T01:01:04.536Z,7.13
2022-11-17T01:02:07.330Z,7.10
2022-11-17T01:03:10.096Z,7.10
2022-11-17T01:04:14.264Z,7.11
2022-11-17T01:05:17.391Z,7.09
2022-11-17T01:06:20.779Z,7.11
2022-11-17T01:07:23.519Z,7.12
2022-11-17T01:08:26.249Z,7.06
2022-11-17T01:09:28.983Z,7.07
2022-11-17T01:10:31.996Z,7.06
2022-11-17T01:11:34.674Z,7.08
2022-11-17T01:12:37.281Z,7.06
2022-11-17T01:13:41.089Z,7.03
2022-11-17T01:14:43.869Z,7.02
2022-11-17T01:15:46.508Z,7.07
2022-11-17T01:16:49.573Z,7.06
2022-11-17T01:17:52.205Z,7.05
2022-11-17T01:18:55.176Z,7.02
2022-11-17T01:19:58.016Z,7.04
2022-11-17T01:21:21.852Z,7.10
2022-11-17T01:22:24.501Z,7.10
2022-11-17T01:23:27.222Z,7.10
2022-11-17T01:24:30.247Z,7.09
2022-11-17T01:25:33.021Z,7.07
2022-11-17T01:26:37.268Z,7.08
2022-11-17T01:27:40.066Z,7.15
2022-11-17T01:28:43.218Z,7.13
2022-11-17T01:29:45.877Z,7.08
2022-11-17T01:30:48.550Z,7.05
2022-11-17T01:31:52.665Z,7.03
2022-11-17T01:32:55.405Z,7.02
2022-11-17T01:33:58.723Z,7.02
2022-11-17T01:35:01.410Z,7.05
2022-11-17T01:36:11.363Z,7.05
2022-11-17T01:37:20.037Z,7.03
2022-11-17T01:38:22.834Z,7.02
2022-11-17T01:39:27.998Z,7.03
2022-11-17T01:40:30.950Z,7.05
2022-11-17T01:41:33.740Z,7.05
2022-11-17T01:42:36.542Z,7.03
2022-11-17T01:43:48.354Z,7.05
2022-11-17T01:45:01.814Z,7.08
2022-11-17T01:46:05.256Z,7.06
2022-11-17T01:47:31.297Z,7.05
2022-11-17T01:48:34.477Z,7.07
2022-11-17T01:49:37.224Z,7.06
2022-11-17T01:50:45.805Z,7.10
2022-11-17T01:51:57.770Z,7.05
2022-11-17T01:53:05.430Z,7.12
2022-11-17T01:54:10.997Z,7.12
2022-11-17T01:55:13.787Z,7.06
2022-11-17T01:56:23.170Z,7.01
2022-11-17T01:57:33.342Z,7.01
2022-11-17T01:58:41.346Z,7.01
2022-11-17T01:59:49.612Z,6.99
2022-11-17T02:00:54.438Z,7.00
2022-11-17T02:01:58.071Z,6.97
2022-11-17T02:03:01.946Z,6.97
2022-11-17T02:04:04.677Z,6.95
2022-11-17T02:05:27.125Z,6.93
2022-11-17T02:06:36.604Z,6.94
2022-11-17T02:07:41.533Z,6.99
2022-11-17T02:08:48.582Z,7.00
2022-11-17T02:09:53.095Z,6.97
2022-11-17T02:10:56.229Z,6.96
2022-11-17T02:11:59.324Z,6.94
2022-11-17T02:13:02.579Z,6.98
2022-11-17T02:14:05.634Z,7.01
2022-11-17T02:15:12.472Z,6.99
2022-11-17T02:16:18.661Z,6.94
2022-11-17T02:17:24.546Z,6.94
2022-11-17T02:18:28.554Z,6.94
2022-11-17T02:19:37.546Z,7.07
2022-11-17T02:20:50.484Z,7.05
2022-11-17T02:22:27.095Z,7.18
2022-11-17T02:23:35.886Z,7.17
2022-11-17T02:25:16.035Z,7.02
2022-11-17T02:26:33.861Z,7.04
2022-11-17T02:28:01.693Z,6.95
2022-11-17T02:29:24.015Z,6.89
2022-11-17T02:30:37.962Z,6.94
2022-11-17T02:32:00.194Z,7.03
2022-11-17T02:33:21.087Z,6.99
2022-11-17T02:34:45.197Z,6.89
2022-11-17T02:35:58.723Z,7.01
2022-11-17T02:37:19.212Z,6.91
2022-11-17T02:38:43.604Z,6.84
2022-11-17T02:40:08.619Z,6.82
2022-11-17T02:41:23.183Z,6.90
2022-11-17T02:42:55.287Z,6.91
2022-11-17T02:44:04.963Z,6.84
2022-11-17T02:45:11.500Z,6.84
2022-11-17T02:46:23.775Z,6.81
2022-11-17T02:47:30.388Z,6.81
2022-11-17T02:48:48.287Z,6.77
2022-11-17T02:49:57.406Z,6.76
2022-11-17T02:51:01.940Z,6.73
2022-11-17T02:52:06.565Z,6.73
2022-11-17T02:53:09.742Z,6.73
2022-11-17T02:54:13.487Z,6.73
2022-11-17T02:55:16.209Z,6.71
2022-11-17T02:56:19.153Z,6.74
2022-11-17T02:57:33.366Z,6.72
2022-11-17T02:58:36.457Z,6.71
2022-11-17T02:59:46.476Z,6.70
2022-11-17T03:01:28.193Z,6.65
2022-11-17T03:03:02.174Z,6.60
2022-11-17T03:04:10.415Z,6.59
2022-11-17T03:05:23.085Z,6.57
2022-11-17T03:06:39.330Z,6.56
2022-11-17T03:08:02.811Z,6.54
2022-11-17T03:09:33.094Z,6.60
2022-11-17T03:11:04.421Z,6.51
2022-11-17T03:12:22.027Z,6.48
2022-11-17T03:13:44.461Z,6.52
2022-11-17T03:15:19.305Z,6.45
2022-11-17T03:16:37.540Z,6.45
2022-11-17T03:18:02.026Z,6.41
2022-11-17T03:19:24.677Z,6.36
2022-11-17T03:20:55.413Z,6.31
2022-11-17T03:22:11.814Z,6.32
2022-11-17T03:23:19.567Z,6.27
2022-11-17T03:24:29.262Z,6.23
2022-11-17T03:25:35.216Z,6.21
2022-11-17T03:26:48.164Z,6.19
2022-11-17T03:28:12.461Z,6.09
2022-11-17T03:29:20.698Z,6.04
2022-11-17T03:30:25.567Z,6.00
2022-11-17T03:31:29.840Z,5.99
2022-11-17T03:32:40.693Z,5.96
2022-11-17T03:33:49.051Z,5.95
2022-11-17T03:34:57.610Z,5.95
2022-11-17T03:36:23.183Z,5.90
2022-11-17T03:37:31.611Z,5.84
2022-11-17T03:38:38.768Z,5.84
2022-11-17T03:39:46.766Z,5.79
2022-11-17T03:40:51.781Z,5.76
2022-11-17T03:42:01.091Z,5.72
2022-11-17T03:43:07.805Z,5.67
2022-11-17T03:44:12.691Z,5.72
2022-11-17T03:45:29.370Z,5.69
2022-11-17T03:48:09.051Z,5.76
2022-11-17T03:49:20.956Z,5.73
2022-11-17T03:50:52.437Z,5.76
2022-11-17T03:51:55.731Z,5.86
2022-11-17T03:52:58.567Z,5.95
2022-11-17T03:54:01.810Z,5.94
2022-11-17T03:55:06.452Z,5.97
2022-11-17T03:56:41.609Z,5.94
2022-11-17T03:58:01.317Z,5.92
2022-11-17T03:59:24.519Z,6.03
2022-11-17T04:00:27.328Z,6.22
2022-11-17T04:01:33.333Z,6.30
2022-11-17T04:02:36.219Z,6.24
2022-11-17T04:03:39.927Z,6.20
2022-11-17T04:05:01.203Z,6.17
2022-11-17T04:06:03.986Z,6.15
2022-11-17T04:07:06.777Z,6.17
2022-11-17T04:08:09.529Z,6.23
2022-11-17T04:09:12.304Z,6.26
2022-11-17T04:10:20.997Z,6.28
2022-11-17T04:11:42.517Z,6.30
2022-11-17T04:13:06.259Z,6.36
2022-11-17T04:14:28.043Z,6.33
2022-11-17T04:15:49.361Z,6.36
2022-11-17T04:16:52.157Z,6.28
2022-11-17T04:17:54.905Z,6.27
2022-11-17T04:19:01.515Z,6.30
2022-11-17T04:20:04.528Z,6.35
2022-11-17T04:21:07.300Z,6.36
2022-11-17T04:22:09.985Z,6.34
2022-11-17T04:23:14.732Z,6.32
2022-11-17T04:24:18.483Z,6.30
2022-11-17T04:25:41.242Z,6.29
2022-11-17T04:27:03.200Z,6.27
2022-11-17T04:28:24.393Z,6.39
2022-11-17T04:29:28.616Z,6.38
2022-11-17T04:30:34.562Z,6.34
2022-11-17T04:31:37.232Z,6.31
2022-11-17T04:32:39.979Z,6.33
2022-11-17T04:33:48.621Z,6.35
2022-11-17T04:34:51.411Z,6.36
2022-11-17T04:35:54.175Z,6.45
2022-11-17T04:36:57.970Z,6.41
2022-11-17T04:38:01.569Z,6.39
2022-11-17T04:39:04.730Z,6.46
2022-11-17T04:40:08.418Z,6.49
2022-11-17T04:41:31.888Z,6.44
2022-11-17T04:42:34.568Z,6.45
2022-11-17T04:43:40.420Z,6.43
2022-11-17T04:44:43.089Z,6.38
2022-11-17T04:45:45.686Z,6.37
2022-11-17T04:46:48.428Z,6.43
2022-11-17T04:47:51.145Z,6.45
2022-11-17T04:48:55.653Z,6.40
2022-11-17T04:49:58.253Z,6.39
2022-11-17T04:51:01.021Z,6.45
2022-11-17T04:52:03.858Z,6.48
2022-11-17T04:53:06.530Z,6.47
2022-11-17T04:54:11.411Z,6.42
2022-11-17T04:55:14.650Z,6.45
2022-11-17T04:56:19.540Z,6.46
2022-11-17T04:57:22.248Z,6.46
2022-11-17T04:58:25.014Z,6.44
2022-11-17T04:59:27.647Z,6.50
2022-11-17T05:00:30.287Z,6.41
2022-11-17T05:01:33.328Z,6.38
2022-11-17T05:02:37.621Z,6.44
2022-11-17T05:03:42.938Z,6.51
2022-11-17T05:04:57.686Z,6.45
2022-11-17T05:06:03.459Z,6.48
2022-11-17T05:07:07.391Z,6.46
2022-11-17T05:08:10.284Z,6.40
2022-11-17T05:09:15.896Z,6.38
2022-11-17T05:10:38.702Z,6.35
2022-11-17T05:12:01.173Z,6.40
2022-11-17T05:13:21.847Z,6.35
2022-11-17T05:14:25.892Z,6.33
2022-11-17T05:15:47.312Z,6.31
2022-11-17T05:17:10.816Z,6.33
2022-11-17T05:19:24.308Z,6.35
2022-11-17T05:20:26.926Z,6.37
2022-11-17T05:21:29.849Z,6.33
2022-11-17T05:22:50.901Z,6.36
2022-11-17T05:23:56.288Z,6.40
2022-11-17T05:25:02.481Z,6.37
2022-11-17T05:26:05.308Z,6.38
2022-11-17T05:27:08.460Z,6.38
2022-11-17T05:28:13.133Z,6.42
2022-11-17T05:29:18.274Z,6.45
2022-11-17T05:30:20.885Z,6.43
2022-11-17T05:31:24.743Z,6.45
2022-11-17T05:32:27.453Z,6.48
2022-11-17T05:33:33.615Z,6.55
2022-11-17T05:34:40.284Z,6.48
2022-11-17T05:35:43.120Z,6.41
2022-11-17T05:36:46.016Z,6.47
2022-11-17T05:37:48.619Z,6.45
2022-11-17T05:38:51.628Z,6.43
2022-11-17T05:39:54.459Z,6.44
2022-11-17T05:40:57.238Z,6.44
2022-11-17T05:41:59.862Z,6.45
2022-11-17T05:43:02.547Z,6.46
2022-11-17T05:45:22.369Z,6.46
2022-11-17T05:46:26.347Z,6.54
2022-11-17T05:47:29.621Z,6.52
2022-11-17T05:48:34.022Z,6.50
2022-11-17T05:49:36.886Z,6.53
2022-11-17T05:50:39.829Z,6.52
2022-11-17T05:51:42.802Z,6.52
2022-11-17T05:52:45.667Z,6.55
2022-11-17T05:53:49.117Z,6.57
2022-11-17T05:54:51.999Z,6.59
2022-11-17T05:56:25.838Z,6.56
2022-11-17T05:57:32.348Z,6.50
2022-11-17T05:58:38.105Z,6.45
2022-11-17T05:59:47.110Z,6.53
2022-11-17T06:00:51.999Z,6.49
2022-11-17T06:02:04.815Z,6.46
2022-11-17T06:03:19.040Z,6.47
2022-11-17T06:04:22.170Z,6.53
2022-11-17T06:05:26.085Z,6.48
2022-11-17T06:06:30.481Z,6.53
2022-11-17T06:07:35.902Z,6.53
2022-11-17T06:08:39.230Z,6.52
2022-11-17T06:09:42.398Z,6.51
2022-11-17T06:10:45.263Z,6.51
2022-11-17T06:11:48.077Z,6.58
2022-11-17T06:12:51.020Z,6.61
2022-11-17T06:13:53.811Z,6.58
2022-11-17T06:14:56.748Z,6.53
2022-11-17T06:16:04.622Z,6.49
2022-11-17T06:17:29.011Z,6.50
2022-11-17T06:18:41.928Z,6.48
2022-11-17T06:19:49.798Z,6.49
2022-11-17T06:20:54.062Z,6.50
2022-11-17T06:22:11.778Z,6.49
2022-11-17T06:23:17.781Z,6.47
2022-11-17T06:24:21.170Z,6.45
2022-11-17T06:25:24.631Z,6.47
2022-11-17T06:26:28.055Z,6.47
2022-11-17T06:27:32.751Z,6.50
2022-11-17T06:28:38.026Z,6.51
2022-11-17T06:29:44.342Z,6.50
2022-11-17T06:30:49.360Z,6.50
2022-11-17T06:31:54.152Z,6.50
2022-11-17T06:32:59.093Z,6.50
2022-11-17T06:34:03.208Z,6.52
2022-11-17T06:35:09.387Z,6.52
2022-11-17T06:36:12.268Z,6.50
2022-11-17T06:37:15.366Z,6.55
2022-11-17T06:38:18.160Z,6.52
2022-11-17T06:39:21.038Z,6.51
2022-11-17T06:40:23.896Z,6.56
2022-11-17T06:41:27.042Z,6.52
2022-11-17T06:42:52.722Z,6.47
2022-11-17T06:43:55.577Z,6.45
2022-11-17T06:44:58.699Z,6.51
2022-11-17T06:46:05.345Z,6.55
2022-11-17T06:47:08.557Z,6.53
2022-11-17T06:48:14.634Z,6.47
2022-11-17T06:49:17.690Z,6.46
2022-11-17T06:50:21.856Z,6.46
2022-11-17T06:51:24.672Z,6.41
2022-11-17T06:52:27.523Z,6.40
2022-11-17T06:53:30.911Z,6.39
2022-11-17T06:54:33.664Z,6.41
2022-11-17T06:55:37.116Z,6.40
2022-11-17T06:56:40.160Z,6.38
2022-11-17T06:57:42.972Z,6.38
2022-11-17T06:58:46.018Z,6.34
2022-11-17T06:59:48.834Z,6.32
2022-11-17T07:00:51.746Z,6.44
2022-11-17T07:01:54.691Z,6.40
2022-11-17T07:03:15.733Z,6.43
2022-11-17T07:04:18.787Z,6.41
2022-11-17T07:05:21.584Z,6.39
2022-11-17T07:06:24.635Z,6.41
2022-11-17T07:07:27.779Z,6.42
2022-11-17T07:08:31.059Z,6.47
2022-11-17T07:09:33.931Z,6.55
2022-11-17T07:10:37.319Z,6.58
2022-11-17T07:11:40.169Z,6.53
2022-11-17T07:12:43.039Z,6.49
2022-11-17T07:13:46.195Z,6.48
2022-11-17T07:14:49.204Z,6.53
2022-11-17T07:15:52.511Z,6.59
2022-11-17T07:16:55.257Z,6.58
2022-11-17T07:17:58.839Z,6.59
2022-11-17T07:19:04.014Z,6.59
2022-11-17T07:20:07.471Z,6.62
2022-11-17T07:21:13.829Z,6.67
2022-11-17T07:22:16.809Z,6.78
2022-11-17T07:23:19.731Z,6.83
2022-11-17T07:24:22.569Z,6.85
2022-11-17T07:25:25.539Z,6.86
2022-11-17T07:26:28.806Z,6.89
2022-11-17T07:27:31.708Z,6.90
2022-11-17T07:28:36.747Z,6.93
2022-11-17T07:29:39.855Z,6.92
2022-11-17T07:30:42.503Z,6.93
2022-11-17T07:31:45.338Z,6.96
2022-11-17T07:32:53.369Z,6.97
2022-11-17T07:33:57.625Z,7.01
2022-11-17T07:35:02.508Z,7.06
2022-11-17T07:36:11.261Z,7.05
2022-11-17T07:37:14.808Z,7.05
2022-11-17T07:38:17.630Z,7.05
2022-11-17T07:39:21.987Z,7.06
2022-11-17T07:40:25.339Z,7.07
2022-11-17T07:41:28.261Z,7.09
2022-11-17T07:42:34.752Z,7.09
2022-11-17T07:43:37.625Z,7.14
2022-11-17T07:44:40.399Z,7.10
2022-11-17T07:45:43.424Z,7.10
2022-11-17T07:46:46.647Z,7.09
2022-11-17T07:47:56.623Z,7.09
2022-11-17T07:48:59.397Z,7.13
2022-11-17T07:50:02.128Z,7.13
2022-11-17T07:51:05.841Z,7.21
2022-11-17T07:52:08.699Z,7.14
2022-11-17T07:53:11.393Z,7.15
2022-11-17T07:54:14.210Z,7.13
2022-11-17T07:55:17.421Z,7.13
2022-11-17T07:56:20.245Z,7.12
2022-11-17T07:57:25.213Z,7.20
2022-11-17T07:58:30.030Z,7.22
2022-11-17T07:59:33.157Z,7.23
2022-11-17T08:00:36.903Z,7.22
2022-11-17T08:01:40.167Z,7.22
2022-11-17T08:02:42.932Z,7.24
2022-11-17T08:03:45.874Z,7.25
2022-11-17T08:04:48.963Z,7.27
2022-11-17T08:05:53.618Z,7.30
2022-11-17T08:06:56.454Z,7.33
2022-11-17T08:08:00.378Z,7.33
2022-11-17T08:09:03.284Z,7.36
2022-11-17T08:10:06.557Z,7.39
2022-11-17T08:11:12.412Z,7.48
2022-11-17T08:12:15.114Z,7.48
2022-11-17T08:13:18.055Z,7.52
2022-11-17T08:14:20.806Z,7.55
2022-11-17T08:15:24.064Z,7.63
2022-11-17T08:16:30.882Z,7.71
2022-11-17T08:17:33.884Z,7.71
2022-11-17T08:18:37.729Z,7.64
2022-11-17T08:19:40.955Z,7.65
2022-11-17T08:20:43.676Z,7.67
2022-11-17T08:21:46.576Z,7.71
2022-11-17T08:22:50.841Z,7.64
2022-11-17T08:23:55.364Z,7.60
2022-11-17T08:24:58.323Z,7.61
2022-11-17T08:26:03.742Z,7.62
2022-11-17T08:27:09.596Z,7.58
2022-11-17T08:28:12.417Z,7.59
2022-11-17T08:29:15.233Z,7.58
2022-11-17T08:30:19.682Z,7.57
2022-11-17T08:31:22.875Z,7.61
2022-11-17T08:32:25.649Z,7.60
2022-11-17T08:33:28.989Z,7.67
2022-11-17T08:34:35.593Z,7.73
2022-11-17T08:35:38.466Z,7.71
2022-11-17T08:36:44.587Z,7.72
2022-11-17T08:37:47.820Z,7.71
2022-11-17T08:38:50.756Z,7.75
2022-11-17T08:39:53.610Z,7.78
2022-11-17T08:40:57.646Z,7.81
2022-11-17T08:42:00.535Z,7.84
2022-11-17T08:43:03.366Z,7.87
2022-11-17T08:44:06.292Z,7.85
2022-11-17T08:45:14.615Z,7.89
2022-11-17T08:46:17.489Z,7.90
2022-11-17T08:47:20.200Z,7.93
2022-11-17T08:48:23.541Z,7.97
2022-11-17T08:49:26.361Z,7.98
2022-11-17T08:50:29.470Z,7.93
2022-11-17T08:51:33.720Z,7.90
2022-11-17T08:52:36.680Z,7.93
2022-11-17T08:53:39.647Z,7.90
2022-11-17T08:54:42.470Z,7.90
2022-11-17T08:55:45.979Z,7.89
2022-11-17T08:56:48.974Z,7.87
2022-11-17T08:57:51.891Z,7.86
2022-11-17T08:58:54.847Z,7.85
2022-11-17T08:59:57.865Z,7.88
2022-11-17T09:01:05.200Z,7.88
2022-11-17T09:02:08.603Z,7.97
2022-11-17T09:03:12.486Z,7.99
2022-11-17T09:04:15.922Z,8.00
2022-11-17T09:05:18.693Z,7.93
2022-11-17T09:06:21.654Z,7.86
2022-11-17T09:07:24.595Z,7.82
2022-11-17T09:08:56.104Z,7.79
2022-11-17T09:09:53.725Z,7.76
2022-11-17T09:10:56.439Z,7.78
2022-11-17T09:12:00.502Z,7.81
2022-11-17T09:13:03.684Z,7.82
2022-11-17T09:14:07.918Z,7.80
2022-11-17T09:15:11.374Z,7.81
2022-11-17T09:16:15.503Z,7.82
2022-11-17T09:17:18.387Z,7.84
2022-11-17T09:18:21.728Z,7.83
2022-11-17T09:19:24.585Z,7.80
2022-11-17T09:20:27.309Z,7.80
2022-11-17T09:21:32.409Z,7.74
2022-11-17T09:22:35.162Z,7.72
2022-11-17T09:23:38.666Z,7.74
2022-11-17T09:24:41.735Z,7.72
2022-11-17T09:25:44.488Z,7.66
2022-11-17T09:26:47.213Z,7.62
2022-11-17T09:27:51.144Z,7.67
2022-11-17T09:28:57.602Z,7.62
2022-11-17T09:30:01.268Z,7.65
2022-11-17T09:31:13.013Z,7.65
2022-11-17T09:32:17.075Z,7.62
2022-11-17T09:33:20.263Z,7.58
2022-11-17T09:34:23.117Z,7.54
2022-11-17T09:35:26.048Z,7.56
2022-11-17T09:36:29.129Z,7.57
2022-11-17T09:37:32.077Z,7.58
2022-11-17T09:38:38.964Z,7.61
2022-11-17T09:39:42.019Z,7.66
2022-11-17T09:40:45.606Z,7.69
2022-11-17T09:41:56.505Z,7.74
2022-11-17T09:42:59.342Z,7.70
2022-11-17T09:44:07.178Z,7.73
2022-11-17T09:45:23.419Z,7.75
2022-11-17T09:46:44.898Z,7.77
2022-11-17T09:48:18.468Z,7.81
2022-11-17T09:49:22.190Z,7.79
2022-11-17T09:50:28.341Z,7.82
2022-11-17T09:51:34.637Z,7.80
2022-11-17T09:52:55.159Z,7.79
2022-11-17T09:54:12.673Z,7.82
2022-11-17T09:55:29.735Z,7.83
2022-11-17T09:56:35.927Z,7.87
2022-11-17T09:57:52.636Z,7.89
2022-11-17T09:59:06.329Z,7.92
2022-11-17T10:00:15.161Z,7.93
2022-11-17T10:01:20.246Z,7.94
2022-11-17T10:02:23.185Z,7.94
2022-11-17T10:03:29.852Z,7.98
2022-11-17T10:04:32.558Z,7.96
2022-11-17T10:05:36.193Z,7.94
2022-11-17T10:06:42.718Z,7.91
2022-11-17T10:07:51.810Z,7.94
2022-11-17T10:09:26.563Z,7.96
2022-11-17T10:10:58.427Z,8.00
2022-11-17T10:12:28.507Z,8.04
2022-11-17T10:13:33.997Z,8.09
2022-11-17T10:14:46.560Z,8.16
2022-11-17T10:16:12.904Z,8.19
2022-11-17T10:17:16.233Z,8.21
2022-11-17T10:18:19.114Z,8.26
2022-11-17T10:19:25.830Z,8.24
2022-11-17T10:20:28.885Z,8.23
2022-11-17T10:21:31.784Z,8.23
2022-11-17T10:22:37.232Z,8.24
2022-11-17T10:24:02.320Z,8.29
2022-11-17T10:25:05.671Z,8.39
2022-11-17T10:26:12.205Z,8.45
2022-11-17T10:27:17.759Z,8.48
2022-11-17T10:28:32.523Z,8.55
2022-11-17T10:29:35.480Z,8.69
2022-11-17T10:30:38.344Z,8.79
2022-11-17T10:31:49.616Z,8.76
2022-11-17T10:32:55.147Z,8.80
2022-11-17T10:33:58.050Z,8.83
2022-11-17T10:35:28.258Z,8.83
2022-11-17T10:36:33.237Z,8.83
2022-11-17T10:37:36.310Z,8.90
2022-11-17T10:38:45.793Z,8.96
2022-11-17T10:39:49.046Z,8.93
2022-11-17T10:40:53.827Z,8.90
2022-11-17T10:41:56.884Z,8.85
2022-11-17T10:43:15.389Z,8.82
2022-11-17T10:44:24.945Z,8.77
2022-11-17T10:45:28.286Z,8.74
2022-11-17T10:46:43.088Z,8.64
2022-11-17T10:47:52.211Z,8.62
2022-11-17T10:49:07.245Z,8.60
2022-11-17T10:50:24.257Z,8.60
2022-11-17T10:51:29.846Z,8.54
2022-11-17T10:52:32.675Z,8.47
2022-11-17T10:53:46.236Z,8.45
2022-11-17T10:54:53.764Z,8.44
2022-11-17T10:56:28.193Z,8.44
2022-11-17T10:57:31.224Z,8.48
2022-11-17T10:58:56.305Z,8.48
2022-11-17T11:00:00.782Z,8.47
2022-11-17T11:01:04.988Z,8.45
2022-11-17T11:02:37.005Z,8.48
2022-11-17T11:03:49.754Z,8.54
2022-11-17T11:05:05.852Z,8.55
2022-11-17T11:06:20.621Z,8.55
2022-11-17T11:07:24.263Z,8.62
2022-11-17T11:08:54.346Z,8.65
2022-11-17T11:10:06.353Z,8.61
2022-11-17T11:11:19.167Z,8.56
2022-11-17T11:12:39.795Z,8.56
2022-11-17T11:13:52.856Z,8.58
2022-11-17T11:14:59.861Z,8.61
2022-11-17T11:16:02.724Z,8.63
2022-11-17T11:17:14.137Z,8.70
2022-11-17T11:18:19.950Z,8.77
2022-11-17T11:19:23.394Z,8.73
2022-11-17T11:20:47.768Z,8.75
2022-11-17T11:22:10.878Z,8.77
2022-11-17T11:23:21.384Z,8.85
2022-11-17T11:24:46.659Z,8.90
2022-11-17T11:26:00.006Z,8.97
2022-11-17T11:27:34.420Z,8.99
2022-11-17T11:28:45.740Z,9.01
2022-11-17T11:30:01.671Z,9.04
2022-11-17T11:31:38.562Z,9.03
2022-11-17T11:32:44.909Z,9.08
2022-11-17T11:34:00.558Z,9.11
2022-11-17T11:35:17.452Z,9.09
2022-11-17T11:36:38.792Z,9.09
2022-11-17T11:37:49.531Z,9.09
2022-11-17T11:38:58.356Z,9.09
2022-11-17T11:40:22.241Z,9.03
2022-11-17T11:41:45.934Z,8.97
2022-11-17T11:43:13.929Z,8.98
2022-11-17T11:44:30.297Z,9.05
2022-11-17T11:45:42.763Z,9.19
2022-11-17T11:46:51.410Z,9.21
2022-11-17T11:48:22.409Z,9.17
2022-11-17T11:49:41.794Z,9.14
2022-11-17T11:51:02.743Z,9.12
2022-11-17T11:52:21.853Z,9.15
2022-11-17T11:53:24.615Z,9.16
2022-11-17T11:54:51.092Z,9.17
2022-11-17T11:56:19.783Z,9.16
2022-11-17T11:57:34.280Z,9.18
2022-11-17T11:58:48.790Z,9.11
2022-11-17T12:00:04.353Z,9.12
2022-11-17T12:01:09.939Z,9.21
2022-11-17T12:02:12.894Z,9.18
2022-11-17T12:03:30.657Z,9.18
2022-11-17T12:04:53.792Z,9.19
2022-11-17T12:06:25.709Z,9.20
2022-11-17T12:08:10.562Z,9.22
2022-11-17T12:09:39.022Z,9.24
2022-11-17T12:11:34.679Z,9.25
2022-11-17T12:12:39.968Z,9.23
2022-11-17T12:13:48.400Z,9.25
2022-11-17T12:15:10.722Z,9.26
2022-11-17T12:16:18.352Z,9.33
2022-11-17T12:17:24.441Z,9.35
2022-11-17T12:18:32.078Z,9.34
2022-11-17T12:19:57.551Z,9.29
2022-11-17T12:21:21.209Z,9.32
2022-11-17T12:22:29.896Z,9.31
2022-11-17T12:24:14.289Z,9.33
2022-11-17T12:25:19.554Z,9.31
2022-11-17T12:26:28.898Z,9.34
2022-11-17T12:27:34.438Z,9.31
2022-11-17T12:28:40.364Z,9.34
2022-11-17T12:29:46.905Z,9.30
2022-11-17T12:30:52.348Z,9.32
2022-11-17T12:32:00.265Z,9.26
2022-11-17T12:33:05.113Z,9.28
2022-11-17T12:34:08.386Z,9.31
2022-11-17T12:35:26.087Z,9.29
2022-11-17T12:36:34.002Z,9.28
2022-11-17T12:37:36.990Z,9.33
2022-11-17T12:38:40.710Z,9.38
2022-11-17T12:39:53.609Z,9.41
2022-11-17T12:40:56.407Z,9.49
2022-11-17T12:42:08.769Z,9.56
2022-11-17T12:43:17.670Z,9.61
2022-11-17T12:44:32.726Z,9.75
2022-11-17T12:46:09.731Z,9.77
2022-11-17T12:47:18.469Z,9.76
2022-11-17T12:48:45.150Z,9.75
2022-11-17T12:50:06.821Z,9.77
2022-11-17T12:51:17.103Z,9.79
2022-11-17T12:52:51.050Z,9.83
2022-11-17T12:54:27.709Z,9.84
2022-11-17T12:55:33.390Z,9.71
2022-11-17T12:56:55.552Z,9.73
2022-11-17T12:58:10.760Z,9.68
2022-11-17T12:59:34.974Z,9.67
2022-11-17T13:01:08.896Z,9.61
2022-11-17T13:02:28.043Z,9.61
2022-11-17T13:03:52.961Z,9.64
2022-11-17T13:05:16.166Z,9.66
2022-11-17T13:06:34.792Z,9.61
2022-11-17T13:07:38.757Z,9.60
2022-11-17T13:08:55.856Z,9.71
2022-11-17T13:10:00.236Z,9.76
2022-11-17T13:11:17.835Z,9.78
2022-11-17T13:12:31.290Z,9.79
2022-11-17T13:13:37.036Z,9.70
2022-11-17T13:16:21.861Z,9.65
2022-11-17T13:17:44.109Z,9.66
2022-11-17T13:18:48.951Z,9.65
2022-11-17T13:19:59.801Z,9.60
2022-11-17T13:21:02.978Z,9.61
2022-11-17T13:22:11.606Z,9.63
2022-11-17T13:23:23.469Z,9.62
2022-11-17T13:24:32.395Z,9.62
2022-11-17T13:25:35.418Z,9.58
2022-11-17T13:26:38.565Z,9.60
2022-11-17T13:27:50.693Z,9.61
2022-11-17T13:29:05.594Z,9.56
2022-11-17T13:30:16.461Z,9.60
2022-11-17T13:31:21.438Z,9.56
2022-11-17T13:32:30.869Z,9.53
2022-11-17T13:33:39.630Z,9.51
2022-11-17T13:34:56.870Z,9.54
2022-11-17T13:36:25.291Z,9.55
2022-11-17T13:37:29.764Z,9.56
2022-11-17T13:38:32.687Z,9.53
2022-11-17T13:39:35.615Z,9.48
2022-11-17T13:40:40.876Z,9.47
2022-11-17T13:41:43.779Z,9.45
2022-11-17T13:42:48.791Z,9.39
2022-11-17T13:43:52.896Z,9.36
2022-11-17T13:44:57.571Z,9.34
2022-11-17T13:46:03.831Z,9.30
2022-11-17T13:47:21.862Z,9.27
2022-11-17T13:48:42.883Z,9.24
2022-11-17T13:49:45.780Z,9.21
2022-11-17T13:50:49.231Z,9.19
2022-11-17T13:51:52.092Z,9.17
2022-11-17T13:53:22.701Z,9.16
2022-11-17T13:54:25.906Z,9.18
2022-11-17T13:55:32.639Z,9.16
2022-11-17T13:56:41.558Z,9.16
2022-11-17T13:57:59.009Z,9.17
2022-11-17T13:59:06.453Z,9.17
2022-11-17T14:00:17.068Z,9.17
2022-11-17T14:01:25.668Z,9.16
2022-11-17T14:02:30.081Z,9.15
2022-11-17T14:03:38.917Z,9.19
2022-11-17T14:04:42.430Z,9.17
2022-11-17T14:05:58.662Z,9.16
2022-11-17T14:07:03.059Z,9.16
2022-11-17T14:08:23.107Z,9.16
2022-11-17T14:09:31.938Z,9.16
2022-11-17T14:10:38.739Z,9.15
2022-11-17T14:11:42.235Z,9.16
2022-11-17T14:12:45.995Z,9.17
2022-11-17T14:13:52.541Z,9.19
2022-11-17T14:14:55.547Z,9.19
2022-11-17T14:16:00.995Z,9.19
2022-11-17T14:17:17.535Z,9.17
2022-11-17T14:18:26.416Z,9.19
2022-11-17T14:19:34.160Z,9.16
2022-11-17T14:20:36.978Z,9.15
2022-11-17T14:22:03.950Z,9.12
2022-11-17T14:23:18.325Z,9.12
2022-11-17T14:24:23.429Z,9.10
2022-11-17T14:25:26.557Z,9.11
2022-11-17T14:26:29.625Z,9.11
2022-11-17T14:27:35.832Z,9.09
2022-11-17T14:28:40.092Z,9.10
2022-11-17T14:29:42.939Z,9.07
2022-11-17T14:30:54.321Z,9.04
2022-11-17T14:31:57.615Z,9.04
2022-11-17T14:33:07.698Z,9.03
2022-11-17T14:34:13.800Z,9.01
2022-11-17T14:36:20.796Z,8.98
2022-11-17T14:37:24.471Z,8.98
2022-11-17T14:38:27.194Z,8.96
2022-11-17T14:39:29.999Z,8.97
2022-11-17T14:40:32.822Z,8.96
2022-11-17T14:41:35.616Z,8.96
2022-11-17T14:42:38.432Z,8.94
2022-11-17T14:43:43.258Z,8.92
2022-11-17T14:44:46.040Z,8.90
2022-11-17T14:45:52.989Z,8.91
2022-11-17T14:46:58.777Z,8.91
2022-11-17T14:48:02.580Z,8.89
2022-11-17T14:49:05.952Z,8.87
2022-11-17T14:50:14.116Z,8.85
2022-11-17T14:51:17.769Z,8.82
2022-11-17T14:52:20.561Z,8.80
2022-11-17T14:53:23.843Z,8.79
2022-11-17T14:54:26.601Z,8.79
2022-11-17T14:55:29.348Z,8.77
2022-11-17T14:56:32.217Z,8.75
2022-11-17T14:57:35.020Z,8.73
2022-11-17T14:58:38.086Z,8.72
2022-11-17T14:59:40.901Z,8.71
2022-11-17T15:00:43.769Z,8.71
2022-11-17T15:01:46.622Z,8.69
2022-11-17T15:02:49.668Z,8.66
2022-11-17T15:03:53.527Z,8.65
2022-11-17T15:04:57.050Z,8.63
2022-11-17T15:06:00.060Z,8.61
2022-11-17T15:07:02.879Z,8.58
2022-11-17T15:08:05.894Z,8.54
2022-11-17T15:09:09.017Z,8.52
2022-11-17T15:10:15.755Z,8.51
2022-11-17T15:11:19.850Z,8.51
2022-11-17T15:12:22.472Z,8.47
2022-11-17T15:13:25.409Z,8.42
2022-11-17T15:14:29.809Z,8.38
2022-11-17T15:15:33.407Z,8.34
2022-11-17T15:16:36.117Z,8.29
2022-11-17T15:17:39.171Z,8.24
2022-11-17T15:18:45.761Z,8.19